createdAt,value
2023-04-14T00:01:31.731Z,4.51
2023-04-14T00:06:35.907Z,4.68
2023-04-14T00:11:37.631Z,4.78
2023-04-14T00:16:41.182Z,4.73
2023-04-14T00:21:42.930Z,4.80
2023-04-14T00:26:44.898Z,4.79
2023-04-14T00:31:48.195Z,4.86
2023-04-14T00:36:49.881Z,4.92
2023-04-14T00:41:52.059Z,4.88
2023-04-14T00:46:55.952Z,4.95
2023-04-14T00:51:58.605Z,4.93
2023-04-14T00:57:03.046Z,4.93
2023-04-14T01:02:06.243Z,4.95
2023-04-14T01:07:08.101Z,5.11
2023-04-14T01:12:21.517Z,5.17
2023-04-14T01:17:32.499Z,5.14
2023-04-14T01:22:38.960Z,5.23
2023-04-14T01:27:46.044Z,5.23
2023-04-14T01:32:52.092Z,5.30
2023-04-14T01:38:03.556Z,5.37
2023-04-14T01:43:10.123Z,5.37
2023-04-14T01:48:14.171Z,5.52
2023-04-14T01:53:18.097Z,5.71
2023-04-14T01:58:22.225Z,6.09
2023-04-14T02:03:27.072Z,6.27
2023-04-14T02:08:31.541Z,6.24
2023-04-14T02:13:34.674Z,6.28
2023-04-14T02:18:40.724Z,6.37
2023-04-14T02:23:43.308Z,6.29
2023-04-14T02:28:50.335Z,6.20
2023-04-14T02:33:56.295Z,6.14
2023-04-14T02:39:02.009Z,6.10
2023-04-14T02:44:18.319Z,6.06
2023-04-14T02:49:23.624Z,6.05
2023-04-14T02:54:27.555Z,6.13
2023-04-14T02:59:30.890Z,6.39
2023-04-14T03:04:37.716Z,6.80
2023-04-14T03:09:40.079Z,7.03
2023-04-14T03:14:44.428Z,7.36
2023-04-14T03:19:49.453Z,7.62
2023-04-14T03:24:53.239Z,7.27
2023-04-14T03:29:58.703Z,7.07
2023-04-14T03:35:03.173Z,6.98
2023-04-14T03:40:08.181Z,6.94
2023-04-14T03:45:11.188Z,6.92
2023-04-14T03:50:16.630Z,7.13
2023-04-14T03:55:19.512Z,7.33
2023-04-14T04:00:23.221Z,7.21
2023-04-14T04:05:27.934Z,7.17
2023-04-14T04:10:33.048Z,7.11
2023-04-14T04:15:35.624Z,7.12
2023-04-14T04:20:41.073Z,7.04
2023-04-14T04:25:43.507Z,7.04
2023-04-14T04:30:46.619Z,7.04
2023-04-14T04:35:51.319Z,7.07
2023-04-14T04:40:53.287Z,7.08
2023-04-14T04:46:14.475Z,7.07
2023-04-14T04:51:17.999Z,7.09
2023-04-14T04:56:20.358Z,7.17
2023-04-14T05:01:22.641Z,7.36
2023-04-14T05:06:25.798Z,7.46
2023-04-14T05:11:28.203Z,7.53
2023-04-14T05:16:30.304Z,7.51
2023-04-14T05:21:34.277Z,7.40
2023-04-14T05:26:57.793Z,7.54
2023-04-14T05:31:58.120Z,7.74
2023-04-14T05:37:01.222Z,7.62
2023-04-14T05:42:03.375Z,7.63
2023-04-14T05:47:05.270Z,7.64
2023-04-14T05:52:08.700Z,7.74
2023-04-14T05:57:10.430Z,7.85
2023-04-14T06:02:12.502Z,7.93
2023-04-14T06:07:15.878Z,7.93
2023-04-14T06:12:17.619Z,7.93
2023-04-14T06:17:19.860Z,8.00
2023-04-14T06:22:23.300Z,8.09
2023-04-14T06:27:25.565Z,8.14
2023-04-14T06:32:27.562Z,8.22
2023-04-14T06:37:30.796Z,8.26
2023-04-14T06:42:32.549Z,8.28
2023-04-14T06:47:34.351Z,8.25
2023-04-14T06:52:37.516Z,8.36
2023-04-14T06:57:39.208Z,8.46
2023-04-14T07:02:44.348Z,8.62
2023-04-14T07:07:47.452Z,8.63
2023-04-14T07:12:49.199Z,8.73
2023-04-14T07:17:51.223Z,8.80
2023-04-14T07:22:54.889Z,9.00
2023-04-14T07:28:03.038Z,8.87
2023-04-14T07:33:06.605Z,8.92
2023-04-14T07:38:09.959Z,9.06
2023-04-14T07:43:11.935Z,9.10
2023-04-14T07:48:13.806Z,9.38
2023-04-14T07:53:17.002Z,9.29
2023-04-14T07:58:24.297Z,9.53
2023-04-14T08:03:28.400Z,9.69
2023-04-14T08:08:31.809Z,9.75
2023-04-14T08:13:33.827Z,9.84
2023-04-14T08:18:36.742Z,9.93
2023-04-14T08:23:40.443Z,10.14
2023-04-14T08:28:42.506Z,10.13
2023-04-14T08:33:44.637Z,9.92
2023-04-14T08:38:48.210Z,9.92
2023-04-14T08:43:50.337Z,9.57
2023-04-14T08:48:58.817Z,9.55
2023-04-14T08:54:05.711Z,9.65
2023-04-14T08:59:09.642Z,9.61
2023-04-14T09:04:13.539Z,9.27
2023-04-14T09:09:18.187Z,9.05
2023-04-14T09:14:21.679Z,9.38
2023-04-14T09:19:24.638Z,9.13
2023-04-14T09:24:31.009Z,9.00
2023-04-14T09:29:34.175Z,9.17
2023-04-14T09:34:36.229Z,9.10
2023-04-14T09:39:48.905Z,9.03
2023-04-14T09:44:55.001Z,8.87
2023-04-14T09:49:58.120Z,8.76
2023-04-14T09:55:01.965Z,8.40
2023-04-14T10:00:17.745Z,8.27
2023-04-14T10:05:19.954Z,8.40
2023-04-14T10:10:23.121Z,8.48
2023-04-14T10:15:28.235Z,8.52
2023-04-14T10:20:30.966Z,8.73
2023-04-14T10:25:34.398Z,8.71
2023-04-14T10:30:36.573Z,8.67
2023-04-14T10:35:41.525Z,8.82
2023-04-14T10:40:47.378Z,8.87
2023-04-14T10:45:53.618Z,8.83
2023-04-14T10:50:58.624Z,8.87
2023-04-14T10:56:03.503Z,8.98
2023-04-14T11:01:23.931Z,8.79
2023-04-14T11:06:51.294Z,8.74
2023-04-14T11:11:56.028Z,8.84
2023-04-14T11:17:03.920Z,8.86
2023-04-14T11:22:07.045Z,8.74
2023-04-14T11:27:13.433Z,8.59
2023-04-14T11:32:15.348Z,8.52
2023-04-14T11:37:17.705Z,8.48
2023-04-14T11:42:20.800Z,8.60
2023-04-14T11:47:22.866Z,8.55
2023-04-14T11:52:24.913Z,8.59
2023-04-14T11:57:28.232Z,8.41
2023-04-14T12:02:30.709Z,8.27
2023-04-14T12:07:32.975Z,8.43
2023-04-14T12:12:36.074Z,8.21
2023-04-14T12:17:38.058Z,8.30
2023-04-14T12:22:49.186Z,8.24
2023-04-14T12:27:55.821Z,8.30
2023-04-14T12:32:58.974Z,8.16
2023-04-14T12:38:00.784Z,8.34
2023-04-14T12:43:05.223Z,8.34
2023-04-14T12:48:07.195Z,8.33
2023-04-14T12:53:25.479Z,8.27
2023-04-14T12:58:30.698Z,8.32
2023-04-14T13:03:41.252Z,8.37
2023-04-14T13:08:43.718Z,8.54
2023-04-14T13:13:47.355Z,8.40
2023-04-14T13:18:49.243Z,8.57
2023-04-14T13:23:51.326Z,8.40
2023-04-14T13:28:54.895Z,8.46
2023-04-14T13:33:57.327Z,8.49
2023-04-14T13:38:59.627Z,8.88
2023-04-14T13:44:03.752Z,8.45
2023-04-14T13:49:05.795Z,8.45
2023-04-14T13:54:07.728Z,8.46
2023-04-14T13:59:11.324Z,8.38
2023-04-14T14:04:13.151Z,8.32
2023-04-14T14:09:15.734Z,8.22
2023-04-14T14:14:18.916Z,8.34
2023-04-14T14:19:20.609Z,8.32
2023-04-14T14:24:22.392Z,8.16
2023-04-14T14:29:25.895Z,8.10
2023-04-14T14:34:27.740Z,8.12
2023-04-14T14:39:29.886Z,7.97
2023-04-14T14:44:33.438Z,7.84
2023-04-14T14:49:36.502Z,7.76
2023-04-14T14:54:40.934Z,7.76
2023-04-14T14:59:44.477Z,7.81
2023-04-14T15:04:46.223Z,7.75
2023-04-14T15:09:49.742Z,7.83
2023-04-14T15:14:53.464Z,7.74
2023-04-14T15:19:55.404Z,7.75
2023-04-14T15:24:57.666Z,7.79
2023-04-14T15:30:01.145Z,7.72
2023-04-14T15:35:03.935Z,7.70
2023-04-14T15:40:08.286Z,7.69
2023-04-14T15:45:12.197Z,7.71
2023-04-14T15:50:14.224Z,7.67
2023-04-14T15:55:24.420Z,7.68
2023-04-14T16:00:27.870Z,7.71
2023-04-14T16:05:30.193Z,7.72
2023-04-14T16:10:32.639Z,7.66
2023-04-14T16:15:36.365Z,7.58
2023-04-14T16:20:38.084Z,7.66
2023-04-14T16:25:39.799Z,7.55
2023-04-14T16:30:43.615Z,7.57
2023-04-14T16:35:45.894Z,7.52
2023-04-14T16:40:54.032Z,7.57
2023-04-14T16:46:02.536Z,7.55
2023-04-14T16:51:06.772Z,7.56
2023-04-14T16:56:10.439Z,7.50
2023-04-14T17:01:13.535Z,7.53
2023-04-14T17:06:15.713Z,7.62
2023-04-14T17:11:18.185Z,7.70
2023-04-14T17:16:21.338Z,7.63
2023-04-14T17:21:23.451Z,7.62
2023-04-14T17:26:25.480Z,7.62
2023-04-14T17:31:28.992Z,7.55
2023-04-14T17:36:30.736Z,7.61
2023-04-14T17:41:33.739Z,7.63
2023-04-14T17:46:37.229Z,7.53
2023-04-14T17:51:39.032Z,7.58
2023-04-14T17:56:41.152Z,7.58
2023-04-14T18:01:44.306Z,7.54
2023-04-14T18:06:46.442Z,7.62
2023-04-14T18:11:48.364Z,7.51
2023-04-14T18:16:51.878Z,7.57
2023-04-14T18:21:53.994Z,7.54
2023-04-14T18:26:56.291Z,7.51
2023-04-14T18:32:00.063Z,7.47
2023-04-14T18:37:02.206Z,7.42
2023-04-14T18:42:04.517Z,7.42
2023-04-14T18:47:07.569Z,7.48
2023-04-14T18:52:09.676Z,7.53
2023-04-14T18:57:11.677Z,7.52
2023-04-14T19:02:15.136Z,7.45
2023-04-14T19:07:16.945Z,7.55
2023-04-14T19:12:28.253Z,7.49
2023-04-14T19:17:34.720Z,7.55
2023-04-14T19:22:37.157Z,7.50
2023-04-14T19:27:40.660Z,7.55
2023-04-14T19:32:45.279Z,7.47
2023-04-14T19:37:47.271Z,7.43
2023-04-14T19:42:49.303Z,7.43
2023-04-14T19:47:53.691Z,7.50
2023-04-14T19:52:55.786Z,7.44
2023-04-14T19:57:59.812Z,7.40
2023-04-14T20:03:03.175Z,7.52
2023-04-14T20:08:05.334Z,7.46
2023-04-14T20:13:07.494Z,7.48
2023-04-14T20:18:11.774Z,7.51
2023-04-14T20:23:16.064Z,7.60
2023-04-14T20:28:18.812Z,7.56
2023-04-14T20:33:22.089Z,7.59
2023-04-14T20:38:24.899Z,7.62
2023-04-14T20:43:27.055Z,7.51
2023-04-14T20:48:32.420Z,7.46
2023-04-14T20:53:37.181Z,7.45
2023-04-14T20:58:41.234Z,7.41
2023-04-14T21:03:48.626Z,7.32
2023-04-14T21:08:54.461Z,7.32
2023-04-14T21:15:38.893Z,7.40
2023-04-14T21:19:28.553Z,7.38
2023-04-14T21:24:32.033Z,7.35
2023-04-14T21:29:34.283Z,7.42
2023-04-14T21:34:38.051Z,7.42
2023-04-14T21:39:39.814Z,7.34
2023-04-14T21:44:42.217Z,7.45
2023-04-14T21:49:45.803Z,7.48
2023-04-14T21:54:47.906Z,7.46
2023-04-14T21:59:50.101Z,7.48
2023-04-14T22:04:53.382Z,7.46
2023-04-14T22:09:55.461Z,7.39
2023-04-14T22:14:57.800Z,7.47
2023-04-14T22:20:01.743Z,7.49
2023-04-14T22:25:03.999Z,7.44
2023-04-14T22:30:09.744Z,7.44
2023-04-14T22:35:13.291Z,7.45
2023-04-14T22:40:15.514Z,7.45
2023-04-14T22:45:17.966Z,7.46
2023-04-14T22:50:21.329Z,7.52
2023-04-14T22:55:23.399Z,7.44
2023-04-14T23:00:25.166Z,7.45
2023-04-14T23:05:31.083Z,7.49
2023-04-14T23:10:33.101Z,7.52
2023-04-14T23:15:35.644Z,7.59
2023-04-14T23:20:39.147Z,7.56
2023-04-14T23:25:41.266Z,7.66
2023-04-14T23:30:43.381Z,7.67
2023-04-14T23:35:49.826Z,7.71
2023-04-14T23:40:55.018Z,7.79
2023-04-14T23:45:58.151Z,7.73
2023-04-14T23:51:15.513Z,7.65
2023-04-14T23:56:21.715Z,7.60
